Terminal Aerodrome Forecast
Issued by NWS Tuscon, AZ

Home | Current Version | Previous Version | Text Only | Print | Product List | Glossary On
Versions: 1 2 3 4 5 6 7 8 9 10 11 12 13 14 15 16 17 18 19
000
FTUS45 KTWC 221100
TAFDUG
TAF
KDUG 221129Z 2212/2312 21005KT P6SM SCT070 BKN130
     FM221700 23007KT P6SM SCT070 SCT130
     FM222100 28010KT P6SM SCT070
     FM230200 32007KT P6SM SCT070 BKN120
     FM230600 03005KT P6SM FEW070 SCT120=

USA.gov is the U.S. government's official web portal to all federal, state and local government web resources and services.